Time;durP1;ratioP1;P1;durP2;ratioP2;P2;SDS_P1;SDS_P2;PMS_P1;PMS_P2;Temp;Humidity;BMP_temperature;BMP_pressure;BME280_temperature;BME280_humidity;BME280_pressure;Samples;Min_cycle;Max_cycle;Signal;HPM_P1;HPM_P2
2021/04/14 00:14:40;;;;;;;;;;;;;;;;;;5086607;28;20773;-48
2021/04/14 00:17:06;;;;;;;1.00;0.80;;;;;;;;;;5068321;28;20324;-48
2021/04/14 00:19:32;;;;;;;0.70;0.70;;;;;;;;;;5056552;28;20045;-46
2021/04/14 00:21:59;;;;;;;0.20;0.20;;;;;;;;;;5056736;28;20025;-46
2021/04/14 00:24:26;;;;;;;0.20;0.20;;;;;;;;;;5057777;28;20074;-47
2021/04/14 00:26:52;;;;;;;0.95;0.95;;;;;;;;;;5068039;28;20043;-46
2021/04/14 00:29:18;;;;;;;0.20;0.20;;;;;;;;;;5050995;28;20017;-48
2021/04/14 00:31:44;;;;;;;0.30;0.30;;;;;;;;;;5068671;28;20047;-47
2021/04/14 00:34:15;;;;;;;0.20;0.20;;;;;;;;;;5059357;28;20083;-50
2021/04/14 00:36:42;;;;;;;0.30;0.30;;;;;;;;;;5056210;28;20407;-48
2021/04/14 00:39:11;;;;;;;0.10;0.10;;;;;;;;;;5055415;28;20017;-46
2021/04/14 00:41:38;;;;;;;0.20;0.20;;;;;;;;;;5051224;28;20049;-47
2021/04/14 00:44:05;;;;;;;0.20;0.20;;;;;;;;;;5052007;28;20077;-46
2021/04/14 00:46:31;;;;;;;0.30;0.30;;;;;;;;;;5055670;28;20029;-52
2021/04/14 00:48:57;;;;;;;0.20;0.20;;;;;;;;;;5061341;28;20494;-48
2021/04/14 00:51:25;;;;;;;0.40;0.40;;;;;;;;;;5065625;28;20029;-46
2021/04/14 00:53:52;;;;;;;0.20;0.20;;;;;;;;;;5051744;28;20078;-46
2021/04/14 00:56:18;;;;;;;1.20;1.20;;;;;;;;;;5050194;28;20104;-49
2021/04/14 00:58:45;;;;;;;0.20;0.20;;;;;;;;;;5068244;28;20029;-49
2021/04/14 01:01:11;;;;;;;0.35;0.35;;;;;;;;;;5059299;28;20510;-49
2021/04/14 01:03:37;;;;;;;0.30;0.30;;;;;;;;;;5055091;28;20061;-47
2021/04/14 01:06:12;;;;;;;0.32;0.32;;;;;;;;;;5054222;28;20140;-46
2021/04/14 01:08:38;;;;;;;0.20;0.20;;;;;;;;;;5051027;28;20494;-50
2021/04/14 01:11:05;;;;;;;0.30;0.30;;;;;;;;;;5050655;28;20522;-49
2021/04/14 01:13:31;;;;;;;0.22;0.22;;;;;;;;;;5064635;28;20045;-48
2021/04/14 01:15:57;;;;;;;0.20;0.20;;;;;;;;;;5052427;28;20048;-47
2021/04/14 01:18:25;;;;;;;0.20;0.20;;;;;;;;;;5051546;28;20086;-46
2021/04/14 01:20:52;;;;;;;0.20;0.20;;;;;;;;;;5051581;28;20040;-50
2021/04/14 01:23:18;;;;;;;0.30;0.30;;;;;;;;;;5051710;28;20052;-46
2021/04/14 01:25:45;;;;;;;0.20;0.20;;;;;;;;;;5051767;28;20056;-46
2021/04/14 01:28:22;;;;;;;0.30;0.30;;;;;;;;;;5051324;28;20075;-50
2021/04/14 01:30:48;;;;;;;0.30;0.30;;;;;;;;;;5051177;28;20521;-51
2021/04/14 01:33:15;;;;;;;0.20;0.20;;;;;;;;;;5050955;28;20510;-48
2021/04/14 01:35:42;;;;;;;0.30;0.30;;;;;;;;;;5035677;28;20033;-49
2021/04/14 01:38:08;;;;;;;0.30;0.30;;;;;;;;;;5053216;28;20075;-46
2021/04/14 01:40:35;;;;;;;0.28;0.28;;;;;;;;;;5051477;28;20048;-49
2021/04/14 01:43:01;;;;;;;0.30;0.30;;;;;;;;;;5051011;28;20502;-49
2021/04/14 01:45:34;;;;;;;0.32;0.32;;;;;;;;;;5051069;28;20059;-46
2021/04/14 01:48:01;;;;;;;0.20;0.20;;;;;;;;;;5051009;28;20063;-49
2021/04/14 01:50:28;;;;;;;0.38;0.38;;;;;;;;;;5050945;28;20433;-47
2021/04/14 01:52:54;;;;;;;0.20;0.20;;;;;;;;;;5052573;28;20100;-46
2021/04/14 01:55:20;;;;;;;0.30;0.30;;;;;;;;;;5050994;28;20497;-46
2021/04/14 01:57:47;;;;;;;0.30;0.30;;;;;;;;;;5050932;28;20056;-49
2021/04/14 02:00:15;;;;;;;0.40;0.40;;;;;;;;;;5050753;28;20033;-46
2021/04/14 02:02:42;;;;;;;0.30;0.30;;;;;;;;;;5033418;28;20060;-47
2021/04/14 02:05:08;;;;;;;0.25;0.25;;;;;;;;;;5052710;28;20067;-46
2021/04/14 02:07:34;;;;;;;0.25;0.25;;;;;;;;;;5050654;28;20115;-49
2021/04/14 02:10:00;;;;;;;0.20;0.20;;;;;;;;;;5049129;28;20017;-48
2021/04/14 02:12:27;;;;;;;1.60;1.50;;;;;;;;;;5050468;28;20029;-47
2021/04/14 02:14:53;;;;;;;0.30;0.30;;;;;;;;;;5050251;28;20031;-47
2021/04/14 02:17:19;;;;;;;0.30;0.30;;;;;;;;;;5051808;28;20031;-49
2021/04/14 02:19:45;;;;;;;0.30;0.30;;;;;;;;;;5050959;28;20155;-46
2021/04/14 02:22:11;;;;;;;0.20;0.20;;;;;;;;;;5050210;28;20032;-51
2021/04/14 02:24:37;;;;;;;0.28;0.28;;;;;;;;;;5050395;28;20498;-46
2021/04/14 02:27:03;;;;;;;0.20;0.20;;;;;;;;;;5049370;28;20025;-47
2021/04/14 02:29:29;;;;;;;0.38;0.38;;;;;;;;;;5050026;28;20037;-47
2021/04/14 02:31:55;;;;;;;0.30;0.30;;;;;;;;;;5052109;28;20028;-46
2021/04/14 02:34:21;;;;;;;0.20;0.20;;;;;;;;;;5050167;28;20053;-46
2021/04/14 02:36:48;;;;;;;0.20;0.20;;;;;;;;;;5050238;28;20100;-47
2021/04/14 02:39:14;;;;;;;0.30;0.30;;;;;;;;;;5050329;28;20146;-47
2021/04/14 02:41:40;;;;;;;0.30;0.30;;;;;;;;;;5049262;28;20037;-46
2021/04/14 02:44:07;;;;;;;0.30;0.30;;;;;;;;;;5051091;28;20033;-51
2021/04/14 02:46:33;;;;;;;0.30;0.30;;;;;;;;;;5050034;28;20495;-46
2021/04/14 02:48:59;;;;;;;0.30;0.30;;;;;;;;;;5048447;28;20059;-47
2021/04/14 02:51:25;;;;;;;0.30;0.30;;;;;;;;;;5049941;28;20033;-46
2021/04/14 02:53:52;;;;;;;0.30;0.30;;;;;;;;;;5049769;28;20028;-49
2021/04/14 02:56:19;;;;;;;0.38;0.38;;;;;;;;;;5051182;28;20025;-47
2021/04/14 02:58:47;;;;;;;0.40;0.40;;;;;;;;;;5050003;28;20032;-46
2021/04/14 03:01:13;;;;;;;0.30;0.30;;;;;;;;;;5049652;28;20051;-46
2021/04/14 03:03:39;;;;;;;0.40;0.40;;;;;;;;;;5049010;28;20040;-46
2021/04/14 03:06:05;;;;;;;0.30;0.30;;;;;;;;;;5049666;28;20486;-46
2021/04/14 03:08:31;;;;;;;0.30;0.30;;;;;;;;;;5049522;28;20024;-51
2021/04/14 03:10:58;;;;;;;0.30;0.30;;;;;;;;;;5051194;28;20021;-46
2021/04/14 03:13:25;;;;;;;0.38;0.38;;;;;;;;;;5049033;28;20056;-47
2021/04/14 03:15:51;;;;;;;0.30;0.30;;;;;;;;;;5049465;28;20025;-46
2021/04/14 03:18:17;;;;;;;0.20;0.20;;;;;;;;;;5049265;28;20036;-47
2021/04/14 03:20:45;;;;;;;0.30;0.30;;;;;;;;;;5048087;28;20109;-47
2021/04/14 03:23:12;;;;;;;0.28;0.28;;;;;;;;;;5051368;28;20778;-46
2021/04/14 03:25:39;;;;;;;0.40;0.40;;;;;;;;;;5048532;28;20025;-46
2021/04/14 03:28:05;;;;;;;0.20;0.20;;;;;;;;;;5047389;28;20055;-46
2021/04/14 03:30:32;;;;;;;0.30;0.30;;;;;;;;;;5049167;28;20490;-48
2021/04/14 03:32:58;;;;;;;0.30;0.30;;;;;;;;;;5049222;28;20017;-47
2021/04/14 03:35:25;;;;;;;0.30;0.30;;;;;;;;;;5049756;28;20029;-47
2021/04/14 03:37:51;;;;;;;0.30;0.30;;;;;;;;;;5050503;28;20036;-49
2021/04/14 03:40:18;;;;;;;0.20;0.20;;;;;;;;;;5048990;28;20127;-46
2021/04/14 03:42:44;;;;;;;0.30;0.30;;;;;;;;;;5048428;28;20086;-47
2021/04/14 03:45:14;;;;;;;2.15;2.05;;;;;;;;;;5049246;28;20029;-46
2021/04/14 03:47:41;;;;;;;0.32;0.32;;;;;;;;;;5033391;28;20027;-48
2021/04/14 03:50:08;;;;;;;0.30;0.30;;;;;;;;;;5050763;28;20025;-51
2021/04/14 03:52:34;;;;;;;0.35;0.35;;;;;;;;;;5049009;28;20445;-53
2021/04/14 03:55:00;;;;;;;0.40;0.40;;;;;;;;;;5048791;28;20091;-46
2021/04/14 03:57:27;;;;;;;0.40;0.40;;;;;;;;;;5048637;28;20025;-48
2021/04/14 03:59:53;;;;;;;0.38;0.38;;;;;;;;;;5047538;28;20057;-47
2021/04/14 04:02:19;;;;;;;0.30;0.30;;;;;;;;;;5048598;28;20120;-48
2021/04/14 04:04:45;;;;;;;0.30;0.30;;;;;;;;;;5049735;28;20076;-46
2021/04/14 04:07:11;;;;;;;0.70;0.70;;;;;;;;;;5047115;28;20036;-46
2021/04/14 04:09:37;;;;;;;0.30;0.30;;;;;;;;;;5048791;28;20059;-48
2021/04/14 04:12:07;;;;;;;0.30;0.30;;;;;;;;;;5048710;28;20033;-46
2021/04/14 04:14:35;;;;;;;0.30;0.30;;;;;;;;;;5048465;28;20581;-46
2021/04/14 04:17:01;;;;;;;0.30;0.30;;;;;;;;;;5050315;28;20036;-46
2021/04/14 04:19:27;;;;;;;0.30;0.30;;;;;;;;;;5048419;28;20029;-46
2021/04/14 04:21:53;;;;;;;0.38;0.38;;;;;;;;;;5048570;28;20025;-46
2021/04/14 04:24:20;;;;;;;0.30;0.30;;;;;;;;;;5048367;28;20040;-47
2021/04/14 04:26:46;;;;;;;0.40;0.40;;;;;;;;;;5048260;28;20029;-46
2021/04/14 04:29:12;;;;;;;0.30;0.30;;;;;;;;;;5050101;28;20166;-53
2021/04/14 04:31:38;;;;;;;0.50;0.50;;;;;;;;;;5048952;28;20517;-46
2021/04/14 04:34:04;;;;;;;0.35;0.35;;;;;;;;;;5047879;28;20029;-49
2021/04/14 04:36:30;;;;;;;0.30;0.30;;;;;;;;;;5048558;28;20076;-48
2021/04/14 04:38:56;;;;;;;0.55;0.55;;;;;;;;;;5047189;28;20080;-46
2021/04/14 04:41:22;;;;;;;0.35;0.35;;;;;;;;;;5049082;28;20500;-46
2021/04/14 04:43:48;;;;;;;0.40;0.40;;;;;;;;;;5049404;28;20591;-47
2021/04/14 04:46:15;;;;;;;0.50;0.50;;;;;;;;;;5048451;28;20083;-46
2021/04/14 04:48:41;;;;;;;0.40;0.40;;;;;;;;;;5048523;28;20039;-49
2021/04/14 04:51:07;;;;;;;0.30;0.30;;;;;;;;;;5052287;28;20025;-46
2021/04/14 04:53:34;;;;;;;0.30;0.30;;;;;;;;;;5052039;28;20025;-47
2021/04/14 04:56:00;;;;;;;0.30;0.30;;;;;;;;;;5053416;28;20021;-46
2021/04/14 04:58:26;;;;;;;0.95;0.95;;;;;;;;;;5052085;28;20037;-46
2021/04/14 05:00:52;;;;;;;0.40;0.40;;;;;;;;;;5051841;28;20051;-53
2021/04/14 05:03:21;;;;;;;1.65;1.65;;;;;;;;;;5045800;28;20051;-48
2021/04/14 05:05:47;;;;;;;0.40;0.40;;;;;;;;;;5052271;28;20025;-46
2021/04/14 05:08:13;;;;;;;0.40;0.40;;;;;;;;;;5037375;28;20113;-48
2021/04/14 05:10:39;;;;;;;0.30;0.30;;;;;;;;;;5043363;28;20059;-50
2021/04/14 05:13:07;;;;;;;1.95;1.45;;;;;;;;;;5043892;28;20408;-46
2021/04/14 05:15:34;;;;;;;4.07;3.78;;;;;;;;;;5049437;28;20529;-46
2021/04/14 05:18:00;;;;;;;0.40;0.40;;;;;;;;;;5052601;28;20091;-46
2021/04/14 05:20:27;;;;;;;0.60;0.60;;;;;;;;;;5052376;28;20132;-46
2021/04/14 05:22:54;;;;;;;0.30;0.30;;;;;;;;;;5052805;28;20068;-50
2021/04/14 05:25:22;;;;;;;0.38;0.38;;;;;;;;;;5052102;28;20474;-51
2021/04/14 05:27:51;;;;;;;0.30;0.30;;;;;;;;;;5052274;28;20550;-46
2021/04/14 05:30:17;;;;;;;0.35;0.35;;;;;;;;;;5052551;28;20021;-46
2021/04/14 05:32:43;;;;;;;0.40;0.40;;;;;;;;;;5050390;28;20025;-46
2021/04/14 05:35:10;;;;;;;0.40;0.40;;;;;;;;;;5050194;28;20115;-46
2021/04/14 05:37:36;;;;;;;0.30;0.30;;;;;;;;;;5050414;28;20447;-47
2021/04/14 05:40:04;;;;;;;0.40;0.40;;;;;;;;;;5052034;28;20053;-47
2021/04/14 05:42:30;;;;;;;0.30;0.30;;;;;;;;;;5047475;28;20052;-46
2021/04/14 05:44:56;;;;;;;0.30;0.30;;;;;;;;;;5038480;28;20064;-48
2021/04/14 05:47:22;;;;;;;0.30;0.30;;;;;;;;;;5051976;28;20108;-48
2021/04/14 05:49:48;;;;;;;0.40;0.40;;;;;;;;;;5050818;28;20021;-46
2021/04/14 05:52:14;;;;;;;0.30;0.30;;;;;;;;;;5051324;28;20037;-46
2021/04/14 05:54:40;;;;;;;0.30;0.30;;;;;;;;;;5050712;28;20039;-45
2021/04/14 05:57:07;;;;;;;0.32;0.32;;;;;;;;;;5051963;28;20112;-46
2021/04/14 05:59:33;;;;;;;3.22;3.13;;;;;;;;;;5050462;28;20044;-50
2021/04/14 06:01:59;;;;;;;0.50;0.50;;;;;;;;;;5052280;28;20025;-46
2021/04/14 06:04:25;;;;;;;0.30;0.30;;;;;;;;;;5051383;28;20044;-47
2021/04/14 06:06:51;;;;;;;0.38;0.38;;;;;;;;;;5051566;28;20021;-46
2021/04/14 06:09:17;;;;;;;0.30;0.30;;;;;;;;;;5051893;28;20028;-51
2021/04/14 06:11:43;;;;;;;0.40;0.40;;;;;;;;;;5051214;28;20032;-46
2021/04/14 06:14:10;;;;;;;0.30;0.30;;;;;;;;;;5052161;28;20585;-49
2021/04/14 06:16:36;;;;;;;0.30;0.30;;;;;;;;;;5050292;28;20113;-45
2021/04/14 06:19:02;;;;;;;0.40;0.40;;;;;;;;;;5051786;28;20047;-45
2021/04/14 06:21:29;;;;;;;0.30;0.30;;;;;;;;;;5051401;28;20049;-46
2021/04/14 06:23:56;;;;;;;0.30;0.30;;;;;;;;;;5048781;28;20127;-45
2021/04/14 06:29:07;;;;;;;0.30;0.30;;;;;;;;;;5051842;28;20051;-46
2021/04/14 06:31:40;;;;;;;0.30;0.30;;;;;;;;;;5051482;28;20039;-45
2021/04/14 06:34:12;;;;;;;0.35;0.35;;;;;;;;;;5050919;28;20029;-45
2021/04/14 06:36:38;;;;;;;0.30;0.30;;;;;;;;;;5050307;28;20542;-45
2021/04/14 06:39:05;;;;;;;0.30;0.30;;;;;;;;;;5051022;28;20090;-46
2021/04/14 06:42:01;;;;;;;0.25;0.25;;;;;;;;;;5051050;28;20068;-45
2021/04/14 06:44:27;;;;;;;0.30;0.30;;;;;;;;;;5048793;28;20041;-47
2021/04/14 06:46:56;;;;;;;0.30;0.30;;;;;;;;;;5049174;28;20037;-49
2021/04/14 06:49:30;;;;;;;0.30;0.30;;;;;;;;;;5050218;28;20159;-46
2021/04/14 06:52:04;;;;;;;0.38;0.38;;;;;;;;;;5049993;28;20721;-46
2021/04/14 06:54:31;;;;;;;0.38;0.38;;;;;;;;;;5050744;28;20037;-46
2021/04/14 06:57:00;;;;;;;0.30;0.30;;;;;;;;;;5051074;28;20024;-46
2021/04/14 06:59:28;;;;;;;0.35;0.35;;;;;;;;;;5049951;28;20028;-46
2021/04/14 07:01:56;;;;;;;0.30;0.30;;;;;;;;;;5050824;28;20025;-47
2021/04/14 07:04:31;;;;;;;0.30;0.30;;;;;;;;;;5050087;28;20049;-47
2021/04/14 07:06:57;;;;;;;;;;;;;;;;;;5050151;28;20021;-49
2021/04/14 07:09:34;;;;;;;0.22;0.22;;;;;;;;;;5050084;28;19905;-46
2021/04/14 07:12:00;;;;;;;0.20;0.20;;;;;;;;;;5049787;28;20384;-50
2021/04/14 07:14:27;;;;;;;0.30;0.30;;;;;;;;;;5048610;28;20084;-48
2021/04/14 07:17:13;;;;;;;0.20;0.20;;;;;;;;;;5049337;28;20039;-53
2021/04/14 07:19:48;;;;;;;0.20;0.20;;;;;;;;;;5050087;28;20037;-48
2021/04/14 07:22:15;;;;;;;0.25;0.25;;;;;;;;;;5047435;28;20064;-52
2021/04/14 07:24:46;;;;;;;0.30;0.30;;;;;;;;;;5050005;28;20053;-50
2021/04/14 07:27:12;;;;;;;0.20;0.20;;;;;;;;;;5050507;28;20483;-54
2021/04/14 07:29:51;;;;;;;15.48;8.13;;;;;;;;;;5048485;28;20029;-49
2021/04/14 07:32:19;;;;;;;0.30;0.30;;;;;;;;;;5045557;28;20025;-48
2021/04/14 07:34:56;;;;;;;0.13;0.13;;;;;;;;;;5048910;28;20025;-48
2021/04/14 07:37:32;;;;;;;0.20;0.20;;;;;;;;;;5049811;28;20116;-49
2021/04/14 07:40:11;;;;;;;0.17;0.17;;;;;;;;;;5049819;28;20104;-48
2021/04/14 07:42:56;;;;;;;0.20;0.20;;;;;;;;;;5046945;28;20051;-48
2021/04/14 07:45:24;;;;;;;0.20;0.20;;;;;;;;;;5048145;28;20028;-50
2021/04/14 07:47:52;;;;;;;0.10;0.10;;;;;;;;;;5049135;28;20040;-47
2021/04/14 07:50:20;;;;;;;0.68;0.68;;;;;;;;;;5047055;28;20032;-48
2021/04/14 07:52:46;;;;;;;0.20;0.20;;;;;;;;;;5044986;28;20064;-50
2021/04/14 07:55:21;;;;;;;0.28;0.28;;;;;;;;;;5047205;28;20067;-48
2021/04/14 07:57:48;;;;;;;0.20;0.20;;;;;;;;;;5046065;28;20024;-49
2021/04/14 08:00:15;;;;;;;0.10;0.10;;;;;;;;;;5048548;28;20101;-49
2021/04/14 08:02:41;;;;;;;0.20;0.20;;;;;;;;;;5046306;28;20433;-48
2021/04/14 08:05:13;;;;;;;0.20;0.20;;;;;;;;;;5048871;28;20040;-50
2021/04/14 08:07:41;;;;;;;0.10;0.10;;;;;;;;;;5048575;28;20501;-48
2021/04/14 08:10:13;;;;;;;0.38;0.38;;;;;;;;;;5047674;28;20029;-49
2021/04/14 08:13:03;;;;;;;0.10;0.10;;;;;;;;;;5047491;28;20045;-50
2021/04/14 08:15:45;;;;;;;0.50;0.50;;;;;;;;;;5045767;28;20073;-49
2021/04/14 08:18:17;;;;;;;4.15;4.03;;;;;;;;;;5046419;28;20391;-52
2021/04/14 08:20:44;;;;;;;0.10;0.10;;;;;;;;;;5047727;28;20039;-49
2021/04/14 08:23:13;;;;;;;0.20;0.20;;;;;;;;;;5047416;28;20083;-48
2021/04/14 08:25:45;;;;;;;0.20;0.20;;;;;;;;;;5052754;28;20029;-48
2021/04/14 08:28:11;;;;;;;0.10;0.10;;;;;;;;;;5053118;28;20482;-49
2021/04/14 08:30:37;;;;;;;0.20;0.20;;;;;;;;;;5052909;28;20018;-49
2021/04/14 08:33:05;;;;;;;0.20;0.20;;;;;;;;;;5051493;28;20486;-48
2021/04/14 08:35:36;;;;;;;0.20;0.20;;;;;;;;;;5051964;28;20456;-49
2021/04/14 08:38:10;;;;;;;0.10;0.10;;;;;;;;;;5053091;28;20071;-48
2021/04/14 08:40:45;;;;;;;8.25;2.55;;;;;;;;;;5053201;28;20033;-49
2021/04/14 08:43:12;;;;;;;0.20;0.20;;;;;;;;;;5053286;28;20080;-50
2021/04/14 08:45:44;;;;;;;0.10;0.10;;;;;;;;;;5052783;28;20348;-48
2021/04/14 08:48:40;;;;;;;0.15;0.15;;;;;;;;;;5049955;28;20037;-49
2021/04/14 08:51:06;;;;;;;2.13;2.03;;;;;;;;;;5035064;28;20049;-48
2021/04/14 08:53:35;;;;;;;0.10;0.10;;;;;;;;;;5052759;28;20407;-49
2021/04/14 08:56:01;;;;;;;0.10;0.10;;;;;;;;;;5053356;28;20064;-49
2021/04/14 08:58:27;;;;;;;0.63;0.63;;;;;;;;;;5052499;28;20391;-48
2021/04/14 09:00:54;;;;;;;0.10;0.10;;;;;;;;;;5052226;28;20486;-49
2021/04/14 09:03:22;;;;;;;0.10;0.10;;;;;;;;;;5051837;28;20067;-48
2021/04/14 09:05:49;;;;;;;0.47;0.35;;;;;;;;;;5047269;28;23956;-56
2021/04/14 09:08:19;;;;;;;4.60;2.03;;;;;;;;;;5048811;28;20055;-55
2021/04/14 09:11:01;;;;;;;6.85;2.17;;;;;;;;;;5047951;28;20207;-53
2021/04/14 09:13:31;;;;;;;2.58;1.52;;;;;;;;;;5050149;28;20453;-53
2021/04/14 09:15:58;;;;;;;0.73;0.73;;;;;;;;;;5048813;28;20372;-49
2021/04/14 09:18:26;;;;;;;1.80;1.65;;;;;;;;;;5051712;28;20021;-48
2021/04/14 09:21:05;;;;;;;0.10;0.10;;;;;;;;;;5048620;28;20428;-52
2021/04/14 09:23:31;;;;;;;0.32;0.32;;;;;;;;;;5063825;28;20123;-53
2021/04/14 09:26:01;;;;;;;43.67;4.50;;;;;;;;;;5047667;28;20382;-49
2021/04/14 09:28:27;;;;;;;4.70;0.95;;;;;;;;;;5048436;28;20037;-51
2021/04/14 09:31:14;;;;;;;3.53;0.85;;;;;;;;;;5043754;28;20556;-51
2021/04/14 09:33:48;;;;;;;7.43;2.95;;;;;;;;;;5040471;28;20028;-55
2021/04/14 09:36:28;;;;;;;0.90;0.57;;;;;;;;;;5044166;28;20402;-50
2021/04/14 09:38:54;;;;;;;0.10;0.10;;;;;;;;;;5046554;28;20276;-54
2021/04/14 09:41:26;;;;;;;0.68;0.68;;;;;;;;;;5047483;28;20027;-52
2021/04/14 09:43:54;;;;;;;0.10;0.10;;;;;;;;;;5047091;28;20079;-53
2021/04/14 09:46:34;;;;;;;4.18;2.33;;;;;;;;;;5045359;28;20013;-54
2021/04/14 09:49:13;;;;;;;0.28;0.28;;;;;;;;;;5045951;28;20040;-51
2021/04/14 09:51:41;;;;;;;0.40;0.40;;;;;;;;;;5046021;28;20020;-52
2021/04/14 09:54:17;;;;;;;0.25;0.25;;;;;;;;;;5046590;28;20033;-53
2021/04/14 09:56:48;;;;;;;0.10;0.10;;;;;;;;;;5045973;28;20029;-51
2021/04/14 09:59:18;;;;;;;0.10;0.10;;;;;;;;;;5046655;28;20071;-52
2021/04/14 10:01:44;;;;;;;0.10;0.10;;;;;;;;;;5043459;28;20052;-51
2021/04/14 10:04:17;;;;;;;1.35;1.35;;;;;;;;;;5044699;28;20033;-52
2021/04/14 10:06:44;;;;;;;2.45;0.52;;;;;;;;;;5045428;28;20059;-49
2021/04/14 10:09:19;;;;;;;1.60;1.50;;;;;;;;;;5045866;28;20021;-50
2021/04/14 10:11:45;;;;;;;4.57;4.28;;;;;;;;;;5043263;28;20082;-54
2021/04/14 10:14:19;;;;;;;0.20;0.20;;;;;;;;;;5047666;28;20052;-50
2021/04/14 10:16:46;;;;;;;3.25;1.20;;;;;;;;;;5050710;28;20021;-52
2021/04/14 10:19:14;;;;;;;6.03;2.40;;;;;;;;;;5050599;28;20033;-51
2021/04/14 10:21:41;;;;;;;0.93;0.85;;;;;;;;;;5049443;28;20021;-53
2021/04/14 10:24:10;;;;;;;1.85;1.35;;;;;;;;;;5047828;28;20070;-54
2021/04/14 10:26:38;;;;;;;2.80;1.15;;;;;;;;;;5051052;28;20055;-53
2021/04/14 10:29:09;;;;;;;1.48;1.38;;;;;;;;;;5047081;28;20127;-52
2021/04/14 10:31:36;;;;;;;0.15;0.15;;;;;;;;;;5040437;28;20033;-50
2021/04/14 10:34:07;;;;;;;2.08;1.00;;;;;;;;;;5039967;28;20018;-53
2021/04/14 10:36:35;;;;;;;0.10;0.10;;;;;;;;;;5040136;28;20033;-53
2021/04/14 10:39:25;;;;;;;0.52;0.52;;;;;;;;;;5037195;28;20025;-52
2021/04/14 10:41:53;;;;;;;2.00;1.05;;;;;;;;;;5048967;28;20083;-53
2021/04/14 10:44:25;;;;;;;0.10;0.10;;;;;;;;;;5048087;28;20029;-53
2021/04/14 10:46:58;;;;;;;1.95;0.80;;;;;;;;;;5046146;28;20048;-54
2021/04/14 10:49:28;;;;;;;6.93;0.95;;;;;;;;;;5047627;28;20029;-53
2021/04/14 10:51:56;;;;;;;5.13;0.68;;;;;;;;;;5047462;28;20083;-56
2021/04/14 10:54:25;;;;;;;1.15;0.55;;;;;;;;;;5047137;28;20025;-53
2021/04/14 10:56:59;;;;;;;8.32;1.85;;;;;;;;;;5045778;28;20532;-54
2021/04/14 10:59:25;;;;;;;2.35;1.20;;;;;;;;;;5046908;28;20020;-51
2021/04/14 11:01:52;;;;;;;2.13;1.45;;;;;;;;;;5046936;28;20059;-52
2021/04/14 11:04:25;;;;;;;4.13;1.90;;;;;;;;;;5044859;28;20034;-48
2021/04/14 11:06:54;;;;;;;0.90;0.85;;;;;;;;;;5044849;28;20021;-54
2021/04/14 11:09:20;;;;;;;0.20;0.20;;;;;;;;;;5047294;28;20036;-56
2021/04/14 11:11:47;;;;;;;5.05;2.33;;;;;;;;;;5046903;28;20028;-52
2021/04/14 11:14:15;;;;;;;1.30;1.20;;;;;;;;;;5045375;28;20048;-54
2021/04/14 11:16:43;;;;;;;2.53;0.93;;;;;;;;;;5044858;28;20425;-52
2021/04/14 11:19:18;;;;;;;0.47;0.43;;;;;;;;;;5045007;28;20072;-52
2021/04/14 11:21:44;;;;;;;2.15;1.95;;;;;;;;;;5048288;28;20368;-52
2021/04/14 11:24:13;;;;;;;2.28;1.40;;;;;;;;;;5047978;28;20433;-51
2021/04/14 11:26:40;;;;;;;1.17;1.17;;;;;;;;;;5046851;28;20390;-50
2021/04/14 11:29:07;;;;;;;0.10;0.10;;;;;;;;;;5048463;28;20029;-48
2021/04/14 11:31:40;;;;;;;0.10;0.10;;;;;;;;;;5045420;28;20132;-50
2021/04/14 11:34:35;;;;;;;3.15;2.92;;;;;;;;;;5044823;28;20499;-55
2021/04/14 11:37:04;;;;;;;1.63;1.52;;;;;;;;;;5039641;28;20068;-50
2021/04/14 11:39:35;;;;;;;1.50;1.40;;;;;;;;;;5049203;28;20032;-53
2021/04/14 11:42:14;;;;;;;13.32;2.78;;;;;;;;;;5048850;28;20025;-52
2021/04/14 11:44:44;;;;;;;2.13;1.10;;;;;;;;;;5048928;28;20112;-55
2021/04/14 11:47:22;;;;;;;0.55;0.55;;;;;;;;;;5049912;28;20025;-54
2021/04/14 11:49:48;;;;;;;1.85;1.67;;;;;;;;;;5048820;28;20035;-56
2021/04/14 11:52:30;;;;;;;1.00;0.95;;;;;;;;;;5049083;28;20055;-54
2021/04/14 11:54:57;;;;;;;1.17;1.17;;;;;;;;;;5046435;28;20108;-54
2021/04/14 11:57:39;;;;;;;0.28;0.25;;;;;;;;;;5049313;28;20024;-55
2021/04/14 12:00:16;;;;;;;1.25;1.15;;;;;;;;;;5049042;28;20052;-54
2021/04/14 12:02:43;;;;;;;3.42;1.95;;;;;;;;;;5048529;28;20064;-54
2021/04/14 12:05:09;;;;;;;1.38;1.27;;;;;;;;;;5048431;28;20061;-57
2021/04/14 12:07:36;;;;;;;1.67;1.40;;;;;;;;;;5048657;28;20410;-57
2021/04/14 12:10:02;;;;;;;1.10;0.77;;;;;;;;;;5047064;28;20561;-54
2021/04/14 12:12:29;;;;;;;0.17;0.17;;;;;;;;;;5047822;28;20029;-56
2021/04/14 12:14:55;;;;;;;1.42;1.42;;;;;;;;;;5047695;28;20513;-53
2021/04/14 12:17:21;;;;;;;1.75;1.00;;;;;;;;;;5047512;28;20028;-57
2021/04/14 12:19:48;;;;;;;0.25;0.20;;;;;;;;;;5048743;28;20049;-54
2021/04/14 12:22:15;;;;;;;13.23;1.85;;;;;;;;;;5046743;28;20032;-50
2021/04/14 12:24:45;;;;;;;0.63;0.35;;;;;;;;;;5047424;28;20453;-55
2021/04/14 12:27:11;;;;;;;1.92;1.10;;;;;;;;;;5045982;28;20037;-52
2021/04/14 12:29:37;;;;;;;0.57;0.57;;;;;;;;;;5047722;28;20112;-48
2021/04/14 12:32:04;;;;;;;9.50;7.18;;;;;;;;;;5048738;28;20120;-55
2021/04/14 12:34:30;;;;;;;1.83;1.00;;;;;;;;;;5047908;28;20048;-54
2021/04/14 12:36:57;;;;;;;0.35;0.30;;;;;;;;;;5048119;28;20021;-49
2021/04/14 12:39:23;;;;;;;0.80;0.75;;;;;;;;;;5047600;28;20557;-51
2021/04/14 12:41:50;;;;;;;0.13;0.13;;;;;;;;;;5048169;28;20032;-48
2021/04/14 12:44:16;;;;;;;6.35;3.05;;;;;;;;;;5047981;28;20041;-53
2021/04/14 12:46:47;;;;;;;4.60;2.08;;;;;;;;;;5047891;28;20033;-52
2021/04/14 12:49:14;;;;;;;0.10;0.10;;;;;;;;;;5047970;28;20071;-48
2021/04/14 12:51:45;;;;;;;1.95;1.40;;;;;;;;;;5047940;28;20111;-53
2021/04/14 12:54:11;;;;;;;0.70;0.60;;;;;;;;;;5045449;28;20384;-48
2021/04/14 12:56:39;;;;;;;3.70;3.40;;;;;;;;;;5047913;28;20036;-49
2021/04/14 12:59:15;;;;;;;0.38;0.38;;;;;;;;;;5048633;28;20052;-48
2021/04/14 13:01:42;;;;;;;4.30;2.28;;;;;;;;;;5048025;28;20116;-53
2021/04/14 13:04:11;;;;;;;0.22;0.22;;;;;;;;;;5047018;28;20405;-48
2021/04/14 13:06:46;;;;;;;1.27;0.40;;;;;;;;;;5047547;28;20040;-48
2021/04/14 13:09:13;;;;;;;0.20;0.20;;;;;;;;;;5044167;28;20033;-50
2021/04/14 13:11:42;;;;;;;0.88;0.80;;;;;;;;;;5050077;28;20025;-57
2021/04/14 13:14:09;;;;;;;4.50;1.45;;;;;;;;;;5049663;28;20049;-55
2021/04/14 13:16:54;;;;;;;7.57;1.92;;;;;;;;;;5050587;28;20088;-48
2021/04/14 13:19:20;;;;;;;2.27;0.83;;;;;;;;;;5050517;28;20037;-51
2021/04/14 13:22:19;;;;;;;3.30;1.55;;;;;;;;;;5051070;28;20032;-48
2021/04/14 13:24:48;;;;;;;3.15;1.67;;;;;;;;;;5017175;28;20082;-49
2021/04/14 13:27:27;;;;;;;0.10;0.10;;;;;;;;;;5015420;28;20724;-49
2021/04/14 13:29:58;;;;;;;7.28;2.78;;;;;;;;;;5017677;28;20050;-48
2021/04/14 13:32:30;;;;;;;2.15;1.75;;;;;;;;;;5013577;28;20239;-53
2021/04/14 13:35:14;;;;;;;7.68;0.88;;;;;;;;;;5012073;28;20034;-50
2021/04/14 13:37:44;;;;;;;2.10;0.55;;;;;;;;;;5011912;28;20033;-49
2021/04/14 13:40:13;;;;;;;0.82;0.82;;;;;;;;;;5012093;28;20029;-51
2021/04/14 13:42:41;;;;;;;5.07;3.08;;;;;;;;;;5011484;28;20033;-49
2021/04/14 13:45:19;;;;;;;2.20;0.50;;;;;;;;;;5010823;28;20033;-50
2021/04/14 13:47:51;;;;;;;6.10;3.45;;;;;;;;;;5010092;28;20041;-50
2021/04/14 13:50:22;;;;;;;1.67;0.47;;;;;;;;;;5012002;28;20037;-53
2021/04/14 13:52:50;;;;;;;1.23;1.13;;;;;;;;;;5014113;28;20116;-50
2021/04/14 13:55:16;;;;;;;0.70;0.52;;;;;;;;;;5017259;28;20029;-51
2021/04/14 13:57:48;;;;;;;2.25;1.65;;;;;;;;;;5021916;28;20288;-62
2021/04/14 14:00:18;;;;;;;0.80;0.50;;;;;;;;;;5038252;28;20509;-48
2021/04/14 14:02:46;;;;;;;0.70;0.60;;;;;;;;;;5034834;28;20044;-54
2021/04/14 14:05:33;;;;;;;1.52;1.02;;;;;;;;;;5051888;28;20028;-49
2021/04/14 14:08:06;;;;;;;2.15;1.95;;;;;;;;;;5051584;28;20128;-50
2021/04/14 14:10:41;;;;;;;4.05;1.52;;;;;;;;;;5050507;28;20032;-50
2021/04/14 14:13:09;;;;;;;0.10;0.10;;;;;;;;;;5050856;28;20041;-52
2021/04/14 14:15:41;;;;;;;0.65;0.50;;;;;;;;;;5050976;28;20040;-48
2021/04/14 14:18:15;;;;;;;0.40;0.40;;;;;;;;;;5051233;28;20021;-49
2021/04/14 14:20:41;;;;;;;2.47;1.27;;;;;;;;;;5051113;28;20162;-49
2021/04/14 14:23:08;;;;;;;9.63;2.70;;;;;;;;;;5051605;28;20036;-49
2021/04/14 14:25:34;;;;;;;3.78;2.22;;;;;;;;;;5029851;28;20108;-48
2021/04/14 14:28:01;;;;;;;0.57;0.57;;;;;;;;;;5051056;28;20040;-48
2021/04/14 14:30:27;;;;;;;3.60;2.25;;;;;;;;;;5049889;28;20036;-53
2021/04/14 14:32:54;;;;;;;1.23;1.13;;;;;;;;;;5051337;28;20055;-48
2021/04/14 14:35:21;;;;;;;1.85;1.45;;;;;;;;;;5050909;28;20033;-49
2021/04/14 14:38:14;;;;;;;6.07;1.92;;;;;;;;;;5050877;28;20039;-55
2021/04/14 14:40:46;;;;;;;0.52;0.52;;;;;;;;;;5048049;28;20048;-49
2021/04/14 14:43:18;;;;;;;0.32;0.32;;;;;;;;;;5049716;28;20546;-49
2021/04/14 14:45:46;;;;;;;3.92;1.45;;;;;;;;;;5050264;28;20033;-50
2021/04/14 14:48:19;;;;;;;0.10;0.10;;;;;;;;;;5050340;28;20028;-51
2021/04/14 14:50:49;;;;;;;0.30;0.28;;;;;;;;;;5034275;28;20021;-64
2021/04/14 14:53:17;;;;;;;4.28;2.15;;;;;;;;;;5048112;28;20037;-52
2021/04/14 14:55:44;;;;;;;0.65;0.65;;;;;;;;;;5050043;28;20043;-53
2021/04/14 14:58:16;;;;;;;0.60;0.60;;;;;;;;;;5049657;28;20475;-51
2021/04/14 15:00:44;;;;;;;1.55;1.08;;;;;;;;;;5049990;28;20108;-53
2021/04/14 15:03:10;;;;;;;1.13;1.00;;;;;;;;;;5047746;28;20037;-53
2021/04/14 15:05:36;;;;;;;2.90;1.48;;;;;;;;;;5042481;28;20401;-51
2021/04/14 15:08:03;;;;;;;1.70;1.50;;;;;;;;;;5045942;28;20103;-54
2021/04/14 15:10:29;;;;;;;0.63;0.52;;;;;;;;;;5047852;28;20613;-57